Latest Coastal Weather Observations for Mallacoota

IDV60701

Issued at 10:11 pm EST Sunday 28 August 2016 (issued every 10 minutes, with the page automatically refreshed every 10 minutes)

About coastal observations | Map of coastal stations | Coastal observations for VIC | Marine services | Other Formats
Station Details ID: 084084 Name: MALLACOOTA Lat: -37.60 Lon: 149.73 Height: 22.0 m
Data from the previous 72 hours. | See also: Recent months at Mallacoota
Date/Time
EST
Temp
°C
Wind Pressure Rain since
9am
mm
Weather Cloud Vis
km
Sea
Height
m
Swell
Dir  Spd
kts
Gust
kts
hPa Trend Height
m
Period
s
Dir
28/10:00pm 8.8 NW 6 7 1022.5 - 0.0 - - - - - - -
28/09:30pm 8.7 NW 5 7 1022.5 - 0.0 - - - - - - -
28/09:00pm 8.6 WNW 4 5 1022.5 - 0.0 - - - - - - -
28/08:30pm 8.4 WNW 4 5 1022.1 - 0.0 - - - - - - -
28/08:00pm 10.2 W 5 7 1021.5 - 0.0 - - - - - - -
28/07:30pm 9.6 WNW 4 5 1021.4 - 0.0 - - - - - - -
28/07:00pm 10.6 W 4 6 1021.2 - 0.0 - - - - - - -
28/06:30pm 10.7 WNW 4 6 1020.9 - 0.0 - - - - - - -
28/06:00pm 11.9 W 3 5 1020.5 - 0.0 - - - - - - -
28/05:30pm 12.8 SW 4 6 1020.1 - 0.0 - - - - - - -
28/05:00pm 13.3 SSW 6 9 1019.6 - 0.0 - - - - - - -
28/04:30pm 14.0 SSW 8 11 1019.2 - 0.0 - - - - - - -
28/04:00pm 14.3 SSW 10 16 1019.0 - 0.0 - - - - - - -
28/03:30pm 16.3 SW 8 12 1018.8 - 0.0 - - - - - - -
28/03:00pm 16.8 SW 9 16 1018.6 - 0.0 - - - - - - -
28/02:30pm 16.6 WSW 9 15 1018.5 - 0.0 - - - - - - -
28/02:00pm 17.0 WSW 7 14 1018.4 - 0.0 - - - - - - -
28/01:30pm 16.9 W 11 19 1018.4 - 0.0 - - - - - - -
28/01:00pm 17.6 WSW 12 21 1018.5 - 0.0 - - - - - - -
28/12:30pm 17.4 W 9 15 1018.8 - 0.0 - - - - - - -
28/12:00pm 15.9 W 8 13 1019.1 - 0.0 - - - - - - -
28/11:30am 14.9 W 6 9 1019.3 - 0.0 - - - - - - -
28/11:00am 14.0 WNW 5 9 1019.5 - 0.0 - - - - - - -
28/10:30am 13.0 NW 3 5 1019.5 - 0.0 - - - - - - -
28/10:00am 11.7 NNW 6 8 1019.4 - 0.0 - - - - - - -
28/09:30am 10.9 NNW 6 8 1019.5 - 0.0 - - - - - - -
28/09:00am 10.8 NNW 6 9 1019.4 - 0.0 - - - - - - -
28/08:30am 10.5 NNW 6 9 1019.2 - 0.0 - - - - - - -
28/08:00am 10.1 NNW 6 9 1019.3 - 0.0 - - - - - - -
28/07:30am 8.7 NW 5 7 1019.2 - 0.0 - - - - - - -
28/07:00am 7.9 NW 6 8 1018.8 - 0.0 - - - - - - -
28/06:30am 7.7 NW 7 10 1018.4 - 0.0 - - - - - - -
28/06:00am 7.5 NW 8 11 1018.6 - 0.0 - - - - - - -
28/05:30am 7.0 NNW 7 9 1018.5 - 0.0 - - - - - - -
28/05:00am 7.1 NNW 7 8 1018.3 - 0.0 - - - - - - -
28/04:30am 7.2 NNW 7 9 1018.2 - 0.0 - - - - - - -
28/04:00am 6.4 NW 4 6 1018.1 - 0.0 - - - - - - -
28/03:30am 6.4 NW 5 7 1018.2 - 0.0 - - - - - - -
28/03:00am 6.0 NW 6 7 1018.2 - 0.0 - - - - - - -
28/02:30am 5.6 NW 4 5 1018.5 - 0.0 - - - - - - -
28/02:00am 5.7 WNW 5 7 1018.6 - 0.0 - - - - - - -
28/01:30am 6.2 WNW 6 8 1018.7 - 0.0 - - - - - - -
28/01:00am 5.6 WNW 5 7 1018.6 - 0.0 - - - - - - -
28/12:30am 5.3 WNW 5 7 1019.1 - 0.0 - - - - - - -
28/12:00am 5.7 WNW 6 8 1019.0 - 0.0 - - - - - - -
 
Date/Time
EST
Temp
°C
Wind Pressure Rain since
9am
mm
Weather Cloud Vis
km
Sea
Height
m
Swell
Dir  Spd
kts
Gust
kts
hPa Trend Height
m
Period
s
Dir
27/11:30pm 6.0 WNW 6 9 1018.9 - 0.0 - - - - - - -
27/11:00pm 6.0 WNW 6 8 1019.0 - 0.0 - - - - - - -
27/10:30pm 6.2 WNW 6 7 1019.1 - 0.0 - - - - - - -
27/10:00pm 6.0 WNW 6 8 1019.0 - 0.0 - - - - - - -
27/09:30pm 5.8 NW 6 7 1019.2 - 0.0 - - - - - - -
27/09:00pm 6.1 NW 5 6 1019.2 - 0.0 - - - - - - -
27/08:30pm 6.2 WNW 5 6 1019.3 - 0.0 - - - - - - -
27/08:00pm 6.7 NW 4 5 1019.1 - 0.0 - - - - - - -
27/07:30pm 6.9 NW 4 5 1019.1 - 0.0 - - - - - - -
27/07:00pm 7.4 N 1 4 1019.1 - 0.0 - - - - - - -
27/06:30pm 7.6 CALM 0 0 1019.1 - 0.0 - - - - - - -
27/06:00pm 9.2 N 1 3 1018.9 - 0.0 - - - - - - -
27/05:30pm 11.6 E 4 6 1018.8 - 0.0 - - - - - - -
27/05:00pm 12.9 E 4 6 1018.7 - 0.0 - - - - - - -
27/04:30pm 13.1 ESE 4 5 1018.6 - 0.0 - - - - - - -
27/04:00pm 13.2 S 8 10 1019.0 - 0.0 - - - - - - -
27/03:30pm 13.7 S 7 11 1018.9 - 0.0 - - - - - - -
27/03:00pm 13.5 S 8 11 1018.7 - 0.0 - - - - - - -
27/02:30pm 13.3 S 12 15 1018.8 - 0.0 - - - - - - -
27/02:00pm 13.5 S 14 17 1018.9 - 0.0 - - - - - - -
27/01:30pm 13.4 S 13 17 1018.9 - 0.0 - - - - - - -
27/01:00pm 13.7 S 15 18 1019.3 - 0.0 - - - - - - -
27/12:30pm 13.9 S 10 15 1019.7 - 0.0 - - - - - - -
27/12:00pm 14.2 WSW 6 10 1020.3 - 0.0 - - - - - - -
27/11:30am 14.6 W 5 8 1020.9 - 0.0 - - - - - - -
27/11:00am 14.1 W 7 10 1021.4 - 0.0 - - - - - - -
27/10:30am 14.0 WSW 7 12 1021.6 - 0.0 - - - - - - -
27/10:00am 13.6 WNW 6 9 1021.7 - 0.0 - - - - - - -
27/09:30am 12.4 WNW 5 7 1021.8 - 0.0 - - - - - - -
27/09:00am 10.7 WNW 5 8 1021.7 - 0.0 - - - - - - -
27/08:30am 9.1 NW 6 8 1021.5 - 0.0 - - - - - - -
27/08:00am 7.8 NW 5 8 1021.4 - 0.0 - - - - - - -
27/07:30am 6.2 NW 6 8 1021.3 - 0.0 - - - - - - -
27/07:00am 4.8 NW 7 9 1021.2 - 0.0 - - - - - - -
27/06:30am 4.9 NW 7 8 1021.1 - 0.0 - - - - - - -
27/06:00am 4.3 NW 6 8 1020.7 - 0.0 - - - - - - -
27/05:30am 5.0 WNW 6 8 1020.5 - 0.0 - - - - - - -
27/05:00am 4.8 WNW 6 8 1020.5 - 0.0 - - - - - - -
27/04:30am 4.8 WNW 5 7 1020.5 - 0.0 - - - - - - -
27/04:00am 5.3 NW 5 7 1020.5 - 0.0 - - - - - - -
27/03:30am 5.3 NW 4 6 1020.4 - 0.0 - - - - - - -
27/03:00am 5.9 NW 4 6 1020.7 - 0.0 - - - - - - -
27/02:30am 6.8 WNW 5 7 1020.8 - 0.0 - - - - - - -
27/02:00am 6.7 WNW 4 6 1020.9 - 0.0 - - - - - - -
27/01:30am 6.6 WNW 4 6 1021.1 - 0.0 - - - - - - -
27/01:00am 7.5 WNW 5 7 1021.3 - 0.0 - - - - - - -
27/12:30am 7.3 WNW 5 8 1021.2 - 0.0 - - - - - - -
27/12:00am 7.1 WNW 5 8 1021.2 - 0.0 - - - - - - -
 
Date/Time
EST
Temp
°C
Wind Pressure Rain since
9am
mm
Weather Cloud Vis
km
Sea
Height
m
Swell
Dir  Spd
kts
Gust
kts
hPa Trend Height
m
Period
s
Dir
26/11:30pm 7.3 NW 5 8 1021.0 - 0.0 - - - - - - -
26/11:00pm 6.4 NW 5 7 1021.1 - 0.0 - - - - - - -
26/10:30pm 6.5 WNW 5 7 1021.0 - 0.0 - - - - - - -
26/10:00pm 6.8 WNW 5 7 1021.0 - 0.0 - - - - - - -
26/09:30pm 7.9 WNW 6 7 1020.9 - 0.0 - - - - - - -
26/09:00pm 7.9 WNW 6 8 1020.8 - 0.0 - - - - - - -
26/08:30pm 7.5 WNW 5 7 1020.6 - 0.0 - - - - - - -
26/08:00pm 7.1 WNW 5 7 1020.4 - 0.0 - - - - - - -
26/07:30pm 6.1 WNW 4 5 1020.4 - 0.0 - - - - - - -
26/07:00pm 6.4 NW 4 5 1020.2 - 0.0 - - - - - - -
26/06:30pm 6.9 W 4 5 1019.8 - 0.0 - - - - - - -
26/06:00pm 7.4 NW 4 4 1019.7 - 0.0 - - - - - - -
26/05:30pm 9.5 NW 3 5 1019.4 - 0.0 - - - - - - -
26/05:00pm 11.1 W 5 8 1019.3 - 0.0 - - - - - - -
26/04:30pm 11.5 W 7 13 1019.2 - 0.0 - - - - - - -
26/04:00pm 12.2 WSW 8 15 1018.9 - 0.0 - - - - - - -
26/03:30pm 12.2 W 8 15 1018.7 - 0.0 - - - - - - -
26/03:00pm 13.5 W 9 15 1018.6 - 0.0 - - - - - - -
26/02:30pm 13.6 W 8 14 1018.5 - 0.0 - - - - - - -
26/02:00pm 14.3 WSW 8 17 1018.6 - 0.0 - - - - - - -
26/01:30pm 13.8 WSW 10 17 1018.7 - 0.0 - - - - - - -
26/01:00pm 13.6 WSW 10 18 1018.7 - 0.0 - - - - - - -
26/12:30pm 13.7 WSW 10 18 1018.9 - 0.0 - - - - - - -
26/12:00pm 13.3 WSW 9 18 1019.2 - 0.0 - - - - - - -
26/11:30am 13.2 WSW 10 18 1019.3 - 0.0 - - - - - - -
26/11:00am 12.8 W 11 17 1019.3 - 0.0 - - - - - - -
26/10:30am 12.6 WSW 10 17 1019.2 - 0.0 - - - - - - -
26/10:00am 11.7 W 10 15 1019.3 - 0.0 - - - - - - -
26/09:30am 10.6 WSW 9 15 1019.5 - 0.0 - - - - - - -
26/09:00am 10.2 W 8 15 1019.2 - 2.6 - - - - - - -
26/08:30am 9.5 W 8 16 1019.1 - 2.6 - - - - - - -
26/08:00am 8.8 W 7 12 1019.0 - 2.6 - - - - - - -
26/07:30am 8.6 W 7 13 1018.7 - 2.6 - - - - - - -
26/07:00am 8.0 W 8 12 1018.2 - 2.6 - - - - - - -
26/06:30am 7.5 W 8 15 1017.7 - 2.6 - - - - - - -
26/06:00am 7.2 W 8 13 1017.3 - 2.6 - - - - - - -
26/05:30am 7.3 W 9 14 1017.2 - 2.6 - - - - - - -
26/05:00am 7.1 W 9 15 1016.9 - 2.6 - - - - - - -
26/04:30am 7.2 W 8 14 1016.6 - 2.6 - - - - - - -
26/04:00am 7.3 W 7 14 1016.4 - 2.6 - - - - - - -
26/03:30am 7.3 W 7 11 1016.1 - 2.6 - - - - - - -
26/03:00am 7.4 W 8 12 1016.0 - 2.6 - - - - - - -
26/02:30am 7.1 W 7 12 1015.9 - 2.6 - - - - - - -
26/02:00am 7.1 W 8 13 1016.0 - 2.6 - - - - - - -
26/01:30am 6.6 W 8 13 1016.1 - 2.6 - - - - - - -
26/01:00am 6.6 W 7 10 1016.3 - 2.6 - - - - - - -
26/12:30am 7.3 WNW 5 7 1016.3 - 2.4 - - - - - - -
26/12:00am 7.5 W 5 8 1016.1 - 2.2 - - - - - - -
 
Date/Time
EST
Temp
°C
Wind Pressure Rain since
9am
mm
Weather Cloud Vis
km
Sea
Height
m
Swell
Dir  Spd
kts
Gust
kts
hPa Trend Height
m
Period
s
Dir
25/11:30pm 7.2 W 5 7 1015.9 - 2.2 - - - - - - -
25/11:00pm 7.5 W 5 12 1015.9 - 1.6 - - - - - - -
25/10:30pm 7.5 W 6 11 1015.6 - 1.6 - - - - - - -

Other Formats:

Comma delimited format used in spreadsheet applications
http://www.bom.gov.au/fwo/IDV60701/IDV60701.94935.axf

JavaScript Object Notation format (JSON) in row-major order
http://www.bom.gov.au/fwo/IDV60701/IDV60701.94935.json